W0DP Weather Reports


Display with metric or nautical units.
time (UTC)temp
F
wind
direction
speed
MPH
gust
MPH
rain 1hr
in
rain 24hr
in
rain mn
in
humidity
%
barometer
mb
20260504081036 50 0.0 0.0 0.00 0.00 0.00 68 1005.5
20260504050015 54 0.0 0.0 0.00 0.00 0.00 60 1007.7
20260504045015 54 0.0 0.0 0.00 0.00 0.00 61 1007.7
20260504044016 54 0.0 0.0 0.00 0.00 0.00 60 1007.9
20260504043035 55 0.0 0.0 0.00 0.00 0.00 59 1007.8
20260504042016 55 0.0 0.0 0.00 0.00 0.00 59 1007.9
20260504041015 55 0.0 0.0 0.00 0.00 0.00 59 1008.0
20260504040015 55 0.0 0.0 0.00 0.00 0.00 58 1008.3
20260504035015 55 0.0 0.0 0.00 0.00 0.00 58 1008.4
20260504034015 56 0.0 0.0 0.00 0.00 0.00 58 1008.6
20260504033015 56 0.0 0.0 0.00 0.00 0.00 57 1008.7
20260504032015 56 0.0 0.0 0.00 0.00 0.00 57 1008.6
20260504031015 56 0.0 0.0 0.00 0.00 0.00 56 1008.6
20260504030015 57 0.0 0.0 0.00 0.00 0.00 56 1008.8
20260504025015 58 0.0 0.0 0.00 0.00 0.00 53 1008.7
20260504024015 59 0.0 0.0 0.00 0.00 0.00 51 1008.7
20260504023015 60 0.0 0.0 0.00 0.00 0.00 48 1008.6
20260504022017 61 0.0 0.0 0.00 0.00 0.00 50 1008.6
20260504021037 62 0.0 0.0 0.00 0.00 0.00 46 1008.6
20260504020017 63 0.0 0.0 0.00 0.00 0.00 42 1008.8
20260504015037 64 0.0 0.0 0.00 0.00 0.00 42 1008.7
20260504014017 65 0.0 0.0 0.00 0.00 0.00 37 1008.5
20260504013017 66 0.0 0.0 0.00 0.00 0.00 35 1008.6
20260504012017 67 0.0 0.0 0.00 0.00 0.00 36 1008.4
20260504011017 68 0.0 0.0 0.00 0.00 0.00 34 1008.4
20260504010017 69 0.0 0.0 0.00 0.00 0.00 33 1008.6
20260504005017 70 0.0 0.0 0.00 0.00 0.00 32 1008.4
20260504004017 71 0.0 0.0 0.00 0.00 0.00 31 1008.5
20260504003017 72 0.0 0.0 0.00 0.00 0.00 30 1008.5
20260504002017 73 0.0 0.0 0.00 0.00 0.00 29 1008.5
20260504001017 73 0.0 0.0 0.00 0.00 0.00 28 1008.5
20260504000017 74 0.0 0.0 0.00 0.00 0.00 27 1008.7
20260503235017 75 0.0 0.0 0.00 0.00 0.00 28 1008.7
20260503234017 76 0.0 0.0 0.00 0.00 0.00 29 1008.7
20260503233037 76 0.0 0.0 0.00 0.00 0.00 25 1008.8
20260503232017 76 0.0 0.0 0.00 0.00 0.00 25 1008.9
20260503231017 77 0.0 0.0 0.00 0.00 0.00 26 1008.8
20260503230017 77 0.0 0.0 0.00 0.00 0.00 25 1008.8
20260503225016 77 0.0 0.0 0.00 0.00 0.00 25 1008.9
20260503224016 77 0.0 0.0 0.00 0.00 0.00 24 1008.9
20260503223017 77 0.0 0.0 0.00 0.00 0.00 25 1008.9
20260503222016 77 0.0 0.0 0.00 0.00 0.00 24 1008.9
20260503221017 78 0.0 0.0 0.00 0.00 0.00 23 1009.0
20260503220016 77 0.0 0.0 0.00 0.00 0.00 24 1009.0
20260503215016 78 0.0 0.0 0.00 0.00 0.00 23 1009.1
20260503214036 77 0.0 0.0 0.00 0.00 0.00 25 1009.1
20260503213016 78 0.0 0.0 0.00 0.00 0.00 25 1009.1
20260503212016 77 0.0 0.0 0.00 0.00 0.00 24 1009.0
20260503211016 77 0.0 0.0 0.00 0.00 0.00 24 1009.1
20260503210016 77 0.0 0.0 0.00 0.00 0.00 25 1009.2
20260503205016 77 0.0 1.0 0.00 0.00 0.00 25 1009.2
20260503204016 77 0.0 0.0 0.00 0.00 0.00 27 1009.5
20260503203016 77 0.0 0.0 0.00 0.00 0.00 27 1009.4
20260503202036 76 0.0 0.0 0.00 0.00 0.00 27 1009.5
20260503201016 76 0.0 0.0 0.00 0.00 0.00 26 1009.6
20260503200016 77 0.0 0.0 0.00 0.00 0.00 28 1009.6
20260503195036 77 0.0 0.0 0.00 0.00 0.00 29 1009.7
20260503194016 77 0.0 0.0 0.00 0.00 0.00 26 1009.8
20260503193016 76 0.0 0.0 0.00 0.00 0.00 30 1009.6
20260503192016 76 0.0 0.0 0.00 0.00 0.00 30 1009.8
20260503191016 75 0.0 0.0 0.00 0.00 0.00 30 1009.8
20260503190016 76 0.0 0.0 0.00 0.00 0.00 31 1009.8
20260503185056 76 0.0 0.0 0.00 0.00 0.00 32 1009.7
20260503184016 76 0.0 0.0 0.00 0.00 0.00 29 1009.7
20260503183016 76 0.0 0.0 0.00 0.00 0.00 31 1009.9
20260503182016 76 0.0 0.0 0.00 0.00 0.00 31 1009.9
20260503181036 76 0.0 0.0 0.00 0.00 0.00 33 1009.8
20260503180016 75 0.0 0.0 0.00 0.00 0.00 32 1010.0
20260503175016 75 0.0 0.0 0.00 0.00 0.00 32 1010.0
20260503174016 75 0.0 0.0 0.00 0.00 0.00 34 1009.9
20260503173016 75 0.0 0.0 0.00 0.00 0.00 33 1010.1
20260503172016 73 0.0 0.0 0.00 0.00 0.00 36 1010.0
20260503171016 72 0.0 0.0 0.00 0.00 0.00 37 1010.0
20260503131017 57 203 3.0 9.0 0.00 0.00 0.00 49 1010.6
20260503110516 52 0.0 0.0 0.00 0.00 0.00 61 1010.8